SWA2127 KLAS-KLGB
Flight info
| Callsign | SWA2127 |
|---|---|
| Flight time | 0h 42m |
| Altitude | 30000 |
| Route | RADYR2 SLVRR FEYLA DSNEE6 |
| Aircraft | B38M/M-SADE2E3GHIJ4J7P2RWZ/LB1D1 |
Departure
| Time | 2026-05-03 21:24 |
|---|---|
| Airport | Harry Reid International Airport (KLAS) |
Arrival
| Time | 2026-05-03 22:07 |
|---|---|
| Airport | Long Beach International Airport (KLGB) |
| Time | Latitude | Longitude | Altitude | Speed | Heading |
|---|---|---|---|---|---|
| 2026-05-03 20:53 | 36.08269 | -115.14884 | 2100 ft | 0 kts | 54° |
| 2026-05-03 21:11 | 36.08260 | -115.14902 | 2100 ft | 2 kts | 54° |
| 2026-05-03 21:11 | 36.08249 | -115.14923 | 2100 ft | 4 kts | 82° |
| 2026-05-03 21:12 | 36.08247 | -115.14950 | 2100 ft | 3 kts | 84° |
| 2026-05-03 21:12 | 36.08247 | -115.14955 | 2100 ft | 1 kts | 84° |
| 2026-05-03 21:17 | 36.08240 | -115.14941 | 2100 ft | 4 kts | 123° |
| 2026-05-03 21:17 | 36.08203 | -115.14906 | 2100 ft | 9 kts | 155° |
| 2026-05-03 21:18 | 36.08129 | -115.14864 | 2100 ft | 15 kts | 154° |
| 2026-05-03 21:18 | 36.08033 | -115.14803 | 2100 ft | 15 kts | 151° |
| 2026-05-03 21:18 | 36.07944 | -115.14748 | 2100 ft | 15 kts | 155° |
| 2026-05-03 21:18 | 36.07860 | -115.14654 | 2099 ft | 19 kts | 114° |
| 2026-05-03 21:19 | 36.07838 | -115.14474 | 2099 ft | 24 kts | 94° |
| 2026-05-03 21:19 | 36.07829 | -115.14248 | 2098 ft | 28 kts | 92° |
| 2026-05-03 21:19 | 36.07828 | -115.13996 | 2096 ft | 31 kts | 89° |
| 2026-05-03 21:19 | 36.07827 | -115.13726 | 2095 ft | 30 kts | 90° |
| 2026-05-03 21:20 | 36.07828 | -115.13518 | 2094 ft | 23 kts | 90° |
| 2026-05-03 21:20 | 36.07828 | -115.13324 | 2091 ft | 22 kts | 90° |
| 2026-05-03 21:20 | 36.07828 | -115.13126 | 2085 ft | 24 kts | 89° |
| 2026-05-03 21:20 | 36.07828 | -115.12906 | 2072 ft | 29 kts | 90° |
| 2026-05-03 21:21 | 36.07829 | -115.12678 | 2067 ft | 27 kts | 90° |
| 2026-05-03 21:21 | 36.07830 | -115.12444 | 2059 ft | 11 kts | 90° |
| 2026-05-03 21:21 | 36.07830 | -115.12347 | 2058 ft | 16 kts | 90° |
| 2026-05-03 21:21 | 36.07792 | -115.12207 | 2053 ft | 10 kts | 130° |
| 2026-05-03 21:22 | 36.07762 | -115.12162 | 2052 ft | 1 kts | 131° |
| 2026-05-03 21:22 | 36.07750 | -115.12146 | 2051 ft | 3 kts | 132° |
| 2026-05-03 21:22 | 36.07741 | -115.12137 | 2051 ft | 0 kts | 147° |
| 2026-05-03 21:22 | 36.07727 | -115.12130 | 2054 ft | 4 kts | 164° |
| 2026-05-03 21:23 | 36.07662 | -115.12129 | 2052 ft | 13 kts | 206° |
| 2026-05-03 21:23 | 36.07641 | -115.12177 | 2053 ft | 14 kts | 261° |
| 2026-05-03 21:23 | 36.07635 | -115.12547 | 2063 ft | 76 kts | 270° |
| 2026-05-03 21:23 | 36.07639 | -115.13435 | 2091 ft | 132 kts | 270° |
| 2026-05-03 21:24 | 36.07643 | -115.14775 | 2116 ft | 176 kts | 272° |
| 2026-05-03 21:24 | 36.07670 | -115.16367 | 2496 ft | 192 kts | 266° |
| 2026-05-03 21:24 | 36.07684 | -115.18051 | 3189 ft | 198 kts | 262° |
| 2026-05-03 21:24 | 36.07662 | -115.19808 | 3693 ft | 213 kts | 263° |
| 2026-05-03 21:25 | 36.07500 | -115.21711 | 3985 ft | 236 kts | 254° |
| 2026-05-03 21:25 | 36.07213 | -115.23762 | 4571 ft | 246 kts | 248° |
| 2026-05-03 21:25 | 36.06386 | -115.25499 | 5328 ft | 236 kts | 218° |
| 2026-05-03 21:25 | 36.04973 | -115.26578 | 5833 ft | 246 kts | 199° |
| 2026-05-03 21:26 | 36.03346 | -115.27389 | 6477 ft | 256 kts | 199° |
| 2026-05-03 21:26 | 36.01695 | -115.28195 | 7341 ft | 256 kts | 199° |
| 2026-05-03 21:26 | 36.00002 | -115.29001 | 7850 ft | 264 kts | 199° |
| 2026-05-03 21:26 | 35.98238 | -115.29599 | 8398 ft | 261 kts | 188° |
| 2026-05-03 21:27 | 35.96450 | -115.30002 | 9318 ft | 264 kts | 189° |
| 2026-05-03 21:27 | 35.94624 | -115.30436 | 10084 ft | 269 kts | 190° |
| 2026-05-03 21:27 | 35.92743 | -115.30893 | 10596 ft | 285 kts | 190° |
| 2026-05-03 21:27 | 35.91114 | -115.31294 | 10873 ft | 301 kts | 191° |
| 2026-05-03 21:28 | 35.89006 | -115.31817 | 11318 ft | 317 kts | 191° |
| 2026-05-03 21:28 | 35.86805 | -115.32364 | 11908 ft | 326 kts | 191° |
| 2026-05-03 21:28 | 35.84582 | -115.32919 | 12775 ft | 327 kts | 191° |
| 2026-05-03 21:28 | 35.82330 | -115.33479 | 13580 ft | 332 kts | 191° |
| 2026-05-03 21:29 | 35.80044 | -115.34048 | 14310 ft | 337 kts | 191° |
| 2026-05-03 21:29 | 35.77725 | -115.34625 | 15077 ft | 340 kts | 192° |
| 2026-05-03 21:29 | 35.75396 | -115.35204 | 15836 ft | 345 kts | 192° |
| 2026-05-03 21:29 | 35.73026 | -115.35793 | 16571 ft | 348 kts | 192° |
| 2026-05-03 21:30 | 35.70666 | -115.36379 | 17310 ft | 353 kts | 192° |
| 2026-05-03 21:30 | 35.68237 | -115.36981 | 17999 ft | 357 kts | 192° |
| 2026-05-03 21:30 | 35.65797 | -115.37587 | 18641 ft | 360 kts | 193° |
| 2026-05-03 21:30 | 35.63328 | -115.38213 | 19262 ft | 363 kts | 195° |
| 2026-05-03 21:31 | 35.61026 | -115.39427 | 19927 ft | 361 kts | 214° |
| 2026-05-03 21:31 | 35.59136 | -115.41453 | 20604 ft | 362 kts | 225° |
| 2026-05-03 21:31 | 35.57390 | -115.43688 | 21268 ft | 363 kts | 226° |
| 2026-05-03 21:31 | 35.55661 | -115.45953 | 21954 ft | 364 kts | 227° |
| 2026-05-03 21:32 | 35.53938 | -115.48239 | 22621 ft | 364 kts | 227° |
| 2026-05-03 21:32 | 35.52224 | -115.50535 | 23263 ft | 366 kts | 228° |
| 2026-05-03 21:32 | 35.50507 | -115.52844 | 23819 ft | 367 kts | 228° |
| 2026-05-03 21:32 | 35.48786 | -115.55164 | 24328 ft | 368 kts | 229° |
| 2026-05-03 21:33 | 35.47059 | -115.57491 | 24845 ft | 369 kts | 229° |
| 2026-05-03 21:33 | 35.45330 | -115.59820 | 25371 ft | 370 kts | 230° |
| 2026-05-03 21:33 | 35.43594 | -115.62157 | 25875 ft | 371 kts | 230° |
| 2026-05-03 21:33 | 35.41855 | -115.64495 | 26360 ft | 372 kts | 230° |
| 2026-05-03 21:34 | 35.40101 | -115.66851 | 26831 ft | 374 kts | 231° |
| 2026-05-03 21:34 | 35.38347 | -115.69207 | 27290 ft | 375 kts | 231° |
| 2026-05-03 21:34 | 35.36584 | -115.71574 | 27761 ft | 376 kts | 231° |
| 2026-05-03 21:34 | 35.34814 | -115.73947 | 28223 ft | 377 kts | 232° |
| 2026-05-03 21:35 | 35.33038 | -115.76321 | 28641 ft | 379 kts | 232° |
| 2026-05-03 21:35 | 35.31259 | -115.78697 | 29055 ft | 380 kts | 232° |
| 2026-05-03 21:35 | 35.29466 | -115.81090 | 29506 ft | 381 kts | 232° |
| 2026-05-03 21:35 | 35.27667 | -115.83491 | 29775 ft | 383 kts | 232° |
| 2026-05-03 21:36 | 35.24112 | -115.88227 | 29784 ft | 379 kts | 232° |
| 2026-05-03 21:36 | 35.20464 | -115.92892 | 29770 ft | 380 kts | 231° |
| 2026-05-03 21:37 | 35.16799 | -115.97519 | 29769 ft | 378 kts | 231° |
| 2026-05-03 21:37 | 35.13138 | -116.02140 | 29742 ft | 378 kts | 231° |
| 2026-05-03 21:38 | 35.09475 | -116.06759 | 29727 ft | 378 kts | 231° |
| 2026-05-03 21:38 | 35.05813 | -116.11370 | 29743 ft | 378 kts | 231° |
| 2026-05-03 21:39 | 35.02148 | -116.15979 | 29741 ft | 378 kts | 231° |
| 2026-05-03 21:39 | 34.98506 | -116.20552 | 29692 ft | 378 kts | 231° |
| 2026-05-03 21:40 | 34.94814 | -116.25181 | 29736 ft | 382 kts | 231° |
| 2026-05-03 21:40 | 34.91117 | -116.29811 | 29739 ft | 380 kts | 231° |
| 2026-05-03 21:41 | 34.87429 | -116.34464 | 29734 ft | 385 kts | 231° |
| 2026-05-03 21:41 | 34.83727 | -116.39184 | 29768 ft | 386 kts | 231° |
| 2026-05-03 21:42 | 34.80014 | -116.43909 | 29768 ft | 386 kts | 231° |
| 2026-05-03 21:42 | 34.76306 | -116.48622 | 29786 ft | 386 kts | 231° |
| 2026-05-03 21:43 | 34.72615 | -116.53302 | 29798 ft | 372 kts | 231° |
| 2026-05-03 21:43 | 34.70860 | -116.55527 | 29813 ft | 360 kts | 231° |
| 2026-05-03 21:43 | 34.69090 | -116.57675 | 29803 ft | 361 kts | 227° |
| 2026-05-03 21:44 | 34.65333 | -116.61681 | 29781 ft | 358 kts | 228° |
| 2026-05-03 21:44 | 34.61648 | -116.65716 | 29795 ft | 359 kts | 228° |
| 2026-05-03 21:45 | 34.57926 | -116.69770 | 29801 ft | 360 kts | 227° |
| 2026-05-03 21:45 | 34.54195 | -116.73826 | 29032 ft | 361 kts | 227° |
| 2026-05-03 21:46 | 34.52308 | -116.75877 | 28190 ft | 365 kts | 227° |
| 2026-05-03 21:46 | 34.50407 | -116.77939 | 27340 ft | 368 kts | 226° |
| 2026-05-03 21:46 | 34.48485 | -116.80008 | 26523 ft | 370 kts | 226° |
| 2026-05-03 21:46 | 34.46556 | -116.82086 | 25726 ft | 372 kts | 226° |
| 2026-05-03 21:47 | 34.44613 | -116.84175 | 24939 ft | 374 kts | 226° |
| 2026-05-03 21:47 | 34.42657 | -116.86279 | 24173 ft | 376 kts | 225° |
| 2026-05-03 21:47 | 34.40698 | -116.88386 | 23479 ft | 377 kts | 225° |
| 2026-05-03 21:47 | 34.38732 | -116.90498 | 22591 ft | 378 kts | 225° |
| 2026-05-03 21:48 | 34.36768 | -116.92606 | 21730 ft | 378 kts | 224° |
| 2026-05-03 21:48 | 34.34798 | -116.94719 | 20878 ft | 379 kts | 224° |
| 2026-05-03 21:48 | 34.32830 | -116.96836 | 20044 ft | 381 kts | 224° |
| 2026-05-03 21:48 | 34.30838 | -116.98967 | 19235 ft | 382 kts | 223° |
| 2026-05-03 21:49 | 34.28865 | -117.01076 | 18493 ft | 383 kts | 223° |
| 2026-05-03 21:49 | 34.26828 | -117.03214 | 17748 ft | 382 kts | 218° |
| 2026-05-03 21:49 | 34.24591 | -117.04894 | 17266 ft | 375 kts | 212° |
| 2026-05-03 21:49 | 34.22404 | -117.06462 | 16768 ft | 368 kts | 212° |
| 2026-05-03 21:50 | 34.20181 | -117.08062 | 16032 ft | 367 kts | 212° |
| 2026-05-03 21:50 | 34.18019 | -117.09622 | 15296 ft | 369 kts | 212° |
| 2026-05-03 21:50 | 34.15754 | -117.10994 | 14835 ft | 362 kts | 205° |
| 2026-05-03 21:50 | 34.13423 | -117.12203 | 14200 ft | 364 kts | 205° |
| 2026-05-03 21:51 | 34.11126 | -117.13419 | 13905 ft | 355 kts | 205° |
| 2026-05-03 21:51 | 34.08889 | -117.14619 | 13510 ft | 349 kts | 205° |
| 2026-05-03 21:51 | 34.06704 | -117.15800 | 13254 ft | 339 kts | 205° |
| 2026-05-03 21:51 | 34.04587 | -117.16948 | 13095 ft | 328 kts | 205° |
| 2026-05-03 21:52 | 34.02539 | -117.18060 | 12934 ft | 317 kts | 205° |
| 2026-05-03 21:52 | 34.00564 | -117.19140 | 12814 ft | 308 kts | 207° |
| 2026-05-03 21:52 | 33.98886 | -117.20687 | 12435 ft | 305 kts | 228° |
| 2026-05-03 21:52 | 33.97526 | -117.22625 | 12063 ft | 301 kts | 227° |
| 2026-05-03 21:53 | 33.96157 | -117.24524 | 11712 ft | 299 kts | 227° |
| 2026-05-03 21:53 | 33.94802 | -117.26409 | 11368 ft | 297 kts | 227° |
| 2026-05-03 21:53 | 33.93459 | -117.28283 | 11032 ft | 294 kts | 227° |
| 2026-05-03 21:53 | 33.92137 | -117.30156 | 10657 ft | 293 kts | 227° |
| 2026-05-03 21:54 | 33.90819 | -117.32020 | 10333 ft | 291 kts | 227° |
| 2026-05-03 21:54 | 33.89951 | -117.33248 | 10116 ft | 289 kts | 227° |
| 2026-05-03 21:54 | 33.88652 | -117.35084 | 9777 ft | 287 kts | 227° |
| 2026-05-03 21:54 | 33.87361 | -117.36907 | 9413 ft | 285 kts | 227° |
| 2026-05-03 21:55 | 33.86082 | -117.38714 | 9095 ft | 283 kts | 227° |
| 2026-05-03 21:55 | 33.84811 | -117.40506 | 8764 ft | 279 kts | 227° |
| 2026-05-03 21:55 | 33.83560 | -117.42270 | 8418 ft | 274 kts | 227° |
| 2026-05-03 21:55 | 33.82341 | -117.43994 | 8128 ft | 267 kts | 228° |
| 2026-05-03 21:56 | 33.81459 | -117.45903 | 7996 ft | 258 kts | 248° |
| 2026-05-03 21:56 | 33.80871 | -117.47882 | 7935 ft | 245 kts | 246° |
| 2026-05-03 21:56 | 33.80293 | -117.49759 | 7862 ft | 237 kts | 246° |
| 2026-05-03 21:56 | 33.79724 | -117.51612 | 7773 ft | 237 kts | 245° |
| 2026-05-03 21:57 | 33.79152 | -117.53482 | 7734 ft | 238 kts | 246° |
| 2026-05-03 21:57 | 33.78583 | -117.55350 | 7618 ft | 240 kts | 246° |
| 2026-05-03 21:57 | 33.78013 | -117.57235 | 7553 ft | 238 kts | 245° |
| 2026-05-03 21:57 | 33.77436 | -117.59106 | 7495 ft | 238 kts | 246° |
| 2026-05-03 21:58 | 33.76863 | -117.60976 | 7423 ft | 238 kts | 246° |
| 2026-05-03 21:58 | 33.76295 | -117.62840 | 7299 ft | 238 kts | 246° |
| 2026-05-03 21:58 | 33.75732 | -117.64718 | 7050 ft | 240 kts | 246° |
| 2026-05-03 21:58 | 33.75168 | -117.66600 | 6791 ft | 239 kts | 246° |
| 2026-05-03 21:59 | 33.74612 | -117.68476 | 6530 ft | 238 kts | 246° |
| 2026-05-03 21:59 | 33.74060 | -117.70343 | 6254 ft | 235 kts | 246° |
| 2026-05-03 21:59 | 33.73511 | -117.72187 | 6024 ft | 234 kts | 246° |
| 2026-05-03 21:59 | 33.72961 | -117.74040 | 5754 ft | 237 kts | 247° |
| 2026-05-03 22:00 | 33.72408 | -117.75899 | 5522 ft | 237 kts | 246° |
| 2026-05-03 22:00 | 33.71856 | -117.77757 | 5281 ft | 236 kts | 247° |
| 2026-05-03 22:00 | 33.71300 | -117.79626 | 5049 ft | 237 kts | 247° |
| 2026-05-03 22:00 | 33.70747 | -117.81483 | 4802 ft | 236 kts | 248° |
| 2026-05-03 22:01 | 33.70207 | -117.83297 | 4546 ft | 235 kts | 247° |
| 2026-05-03 22:01 | 33.69664 | -117.85117 | 4304 ft | 233 kts | 247° |
| 2026-05-03 22:01 | 33.69124 | -117.86927 | 4141 ft | 227 kts | 247° |
| 2026-05-03 22:01 | 33.68585 | -117.88716 | 4133 ft | 229 kts | 247° |
| 2026-05-03 22:02 | 33.68045 | -117.90511 | 4114 ft | 226 kts | 249° |
| 2026-05-03 22:02 | 33.67533 | -117.92262 | 4087 ft | 220 kts | 251° |
| 2026-05-03 22:02 | 33.67301 | -117.94080 | 3944 ft | 220 kts | 264° |
| 2026-05-03 22:02 | 33.67220 | -117.95903 | 3729 ft | 218 kts | 271° |
| 2026-05-03 22:03 | 33.67668 | -117.97643 | 3411 ft | 224 kts | 302° |
| 2026-05-03 22:03 | 33.68643 | -117.99084 | 3210 ft | 220 kts | 308° |
| 2026-05-03 22:03 | 33.69656 | -118.00442 | 3116 ft | 219 kts | 311° |
| 2026-05-03 22:03 | 33.70722 | -118.01762 | 2886 ft | 221 kts | 311° |
| 2026-05-03 22:04 | 33.71804 | -118.03068 | 2650 ft | 219 kts | 311° |
| 2026-05-03 22:04 | 33.72861 | -118.04345 | 2405 ft | 212 kts | 313° |
| 2026-05-03 22:04 | 33.73867 | -118.05557 | 2100 ft | 195 kts | 312° |
| 2026-05-03 22:04 | 33.74755 | -118.06631 | 1877 ft | 170 kts | 312° |
| 2026-05-03 22:05 | 33.75540 | -118.07580 | 1614 ft | 154 kts | 311° |
| 2026-05-03 22:05 | 33.76287 | -118.08488 | 1451 ft | 152 kts | 310° |
| 2026-05-03 22:05 | 33.77029 | -118.09387 | 1190 ft | 150 kts | 310° |
| 2026-05-03 22:05 | 33.77759 | -118.10279 | 1007 ft | 149 kts | 312° |
| 2026-05-03 22:06 | 33.78493 | -118.11157 | 789 ft | 150 kts | 311° |
| 2026-05-03 22:06 | 33.79225 | -118.12054 | 564 ft | 152 kts | 309° |
| 2026-05-03 22:06 | 33.79966 | -118.12971 | 292 ft | 158 kts | 310° |
| 2026-05-03 22:06 | 33.80759 | -118.13908 | 133 ft | 159 kts | 308° |
| 2026-05-03 22:07 | 33.81525 | -118.14818 | 39 ft | 150 kts | 304° |
| 2026-05-03 22:07 | 33.82048 | -118.15472 | 28 ft | 43 kts | 315° |
| 2026-05-03 22:07 | 33.82162 | -118.15467 | 27 ft | 20 kts | 83° |
| 2026-05-03 22:07 | 33.82168 | -118.15300 | 29 ft | 21 kts | 92° |
| 2026-05-03 22:08 | 33.82164 | -118.15129 | 29 ft | 18 kts | 90° |
| 2026-05-03 22:08 | 33.82164 | -118.14983 | 29 ft | 16 kts | 90° |
| 2026-05-03 22:08 | 33.82163 | -118.14868 | 29 ft | 9 kts | 91° |
| 2026-05-03 22:08 | 33.82145 | -118.14807 | 29 ft | 6 kts | 147° |
| 2026-05-03 22:09 | 33.82061 | -118.14795 | 31 ft | 20 kts | 177° |
| 2026-05-03 22:09 | 33.81930 | -118.14796 | 31 ft | 19 kts | 181° |
| 2026-05-03 22:09 | 33.81859 | -118.14746 | 31 ft | 13 kts | 120° |
| 2026-05-03 22:10 | 33.81712 | -118.14696 | 31 ft | 7 kts | 160° |
| 2026-05-03 22:10 | 33.81696 | -118.14651 | 31 ft | 7 kts | 90° |
| 2026-05-03 22:10 | 33.81696 | -118.14633 | 31 ft | 2 kts | 91° |
| 2026-05-03 22:10 | 33.81696 | -118.14610 | 31 ft | 2 kts | 90° |
| 2026-05-03 22:11 | 33.81696 | -118.14606 | 31 ft | 0 kts | 90° |